createdAt,value
2023-12-13T04:06:08.662Z,8.48
2023-12-13T04:08:37.086Z,7.93
2023-12-13T04:11:05.726Z,8.55
2023-12-13T04:13:33.801Z,7.53
2023-12-13T04:16:01.685Z,7.85
2023-12-13T04:18:29.701Z,7.95
2023-12-13T04:20:57.645Z,7.70
2023-12-13T04:23:25.909Z,8.18
2023-12-13T04:25:54.048Z,8.02
2023-12-13T04:28:22.006Z,8.10
2023-12-13T04:30:50.920Z,8.18
2023-12-13T04:33:20.271Z,7.57
2023-12-13T04:35:48.492Z,7.32
2023-12-13T04:38:16.429Z,7.57
2023-12-13T04:40:44.353Z,7.53
2023-12-13T04:43:12.395Z,7.85
2023-12-13T04:45:40.230Z,7.57
2023-12-13T04:48:08.230Z,7.45
2023-12-13T04:50:36.268Z,7.32
2023-12-13T04:53:04.233Z,7.15
2023-12-13T04:55:32.145Z,7.28
2023-12-13T04:57:59.959Z,7.35
2023-12-13T05:00:27.903Z,7.32
2023-12-13T05:02:55.920Z,7.20
2023-12-13T05:05:23.914Z,6.95
2023-12-13T05:07:52.094Z,7.05
2023-12-13T05:10:20.167Z,7.43
2023-12-13T05:12:48.134Z,6.78
2023-12-13T05:15:15.921Z,6.65
2023-12-13T05:17:43.906Z,6.40
2023-12-13T05:20:12.038Z,6.70
2023-12-13T05:22:39.938Z,7.28
2023-12-13T05:25:09.403Z,6.50
2023-12-13T05:27:37.313Z,6.07
2023-12-13T05:30:05.788Z,6.07
2023-12-13T05:32:33.683Z,5.97
2023-12-13T05:35:01.572Z,6.35
2023-12-13T05:37:29.740Z,6.18
2023-12-13T05:39:57.657Z,6.43
2023-12-13T05:42:25.712Z,5.78
2023-12-13T05:44:53.580Z,5.63
2023-12-13T05:47:21.908Z,5.60
2023-12-13T05:49:49.989Z,5.50
2023-12-13T05:52:19.663Z,5.10
2023-12-13T05:54:47.577Z,5.05
2023-12-13T05:57:15.513Z,5.32
2023-12-13T05:59:43.595Z,5.22
2023-12-13T06:02:11.986Z,4.95
2023-12-13T06:04:42.533Z,4.93
2023-12-13T06:07:11.451Z,4.75
2023-12-13T06:09:42.179Z,4.97
2023-12-13T06:12:10.021Z,5.20
2023-12-13T06:14:37.838Z,5.35
2023-12-13T06:17:05.605Z,5.20
2023-12-13T06:19:34.329Z,4.75
2023-12-13T06:22:02.181Z,4.80
2023-12-13T06:24:30.137Z,4.70
2023-12-13T06:26:58.958Z,4.82
2023-12-13T06:29:27.068Z,4.65
2023-12-13T06:31:55.028Z,5.07
2023-12-13T06:34:23.633Z,4.75
2023-12-13T06:36:51.641Z,4.43
2023-12-13T06:39:19.442Z,4.68
2023-12-13T06:41:47.611Z,4.50
2023-12-13T06:44:15.467Z,4.50
2023-12-13T06:46:43.463Z,4.70
2023-12-13T06:49:11.383Z,4.40
2023-12-13T06:51:39.465Z,4.65
2023-12-13T06:54:10.029Z,4.28
2023-12-13T06:56:37.880Z,4.35
2023-12-13T06:59:05.745Z,4.05
2023-12-13T07:01:33.813Z,4.05
2023-12-13T07:04:02.628Z,5.03
2023-12-13T07:06:30.518Z,4.53
2023-12-13T07:08:58.689Z,4.80
2023-12-13T07:11:28.680Z,4.47
2023-12-13T07:13:58.063Z,4.73
2023-12-13T07:16:25.983Z,5.05
2023-12-13T07:18:54.113Z,4.18
2023-12-13T07:21:22.291Z,4.63
2023-12-13T07:23:50.373Z,4.25
2023-12-13T07:26:18.197Z,4.30
2023-12-13T07:28:46.406Z,4.63
2023-12-13T07:31:14.476Z,4.10
2023-12-13T07:33:43.504Z,4.82
2023-12-13T07:36:14.573Z,4.35
2023-12-13T07:38:42.981Z,4.22
2023-12-13T07:41:10.947Z,4.43
2023-12-13T07:43:40.998Z,3.78
2023-12-13T07:46:10.503Z,4.32
2023-12-13T07:48:41.216Z,4.22
2023-12-13T07:51:09.324Z,4.00
2023-12-13T07:53:37.241Z,3.90
2023-12-13T07:56:08.045Z,3.90
2023-12-13T07:58:36.656Z,3.53
2023-12-13T08:01:04.781Z,3.78
2023-12-13T08:03:32.698Z,3.80
2023-12-13T08:06:00.656Z,3.70
2023-12-13T08:08:30.439Z,3.83
2023-12-13T08:10:58.794Z,3.58
2023-12-13T08:13:26.736Z,3.58
2023-12-13T08:15:54.850Z,3.25
2023-12-13T08:18:22.781Z,3.50
2023-12-13T08:20:51.621Z,3.45
2023-12-13T08:23:19.588Z,3.83
2023-12-13T08:25:47.626Z,3.08
2023-12-13T08:28:15.674Z,3.20
2023-12-13T08:30:43.851Z,3.20
2023-12-13T08:33:11.855Z,3.20
2023-12-13T08:35:39.892Z,3.10
2023-12-13T08:38:07.994Z,3.20
2023-12-13T08:40:36.125Z,2.88
2023-12-13T08:43:03.927Z,2.95
2023-12-13T08:45:31.934Z,2.85
2023-12-13T08:47:59.917Z,3.13
2023-12-13T08:50:28.164Z,2.47
2023-12-13T08:52:56.051Z,3.00
2023-12-13T08:55:24.000Z,3.00
2023-12-13T08:57:51.978Z,2.58
2023-12-13T09:00:21.010Z,2.90
2023-12-13T09:02:48.997Z,2.50
2023-12-13T09:05:16.946Z,2.72
2023-12-13T09:07:44.924Z,2.90
2023-12-13T09:10:13.496Z,2.60
2023-12-13T09:12:41.573Z,2.90
2023-12-13T09:15:09.585Z,2.50
2023-12-13T09:17:38.373Z,2.38
2023-12-13T09:20:07.775Z,2.70
2023-12-13T09:22:36.308Z,2.30
2023-12-13T09:25:04.502Z,2.30
2023-12-13T09:27:32.626Z,2.63
2023-12-13T09:30:00.673Z,2.40
2023-12-13T09:32:28.560Z,2.08
2023-12-13T09:34:56.927Z,2.30
2023-12-13T09:37:25.157Z,2.33
2023-12-13T09:39:59.646Z,2.45
2023-12-13T09:42:32.046Z,2.40
2023-12-13T09:45:01.868Z,2.10
2023-12-13T09:47:31.212Z,2.03
2023-12-13T09:49:59.431Z,2.10
2023-12-13T09:52:28.687Z,2.47
2023-12-13T09:54:58.098Z,2.40
2023-12-13T09:57:25.902Z,2.67
2023-12-13T09:59:54.077Z,2.15
2023-12-13T10:02:21.985Z,2.28
2023-12-13T10:04:50.735Z,2.15
2023-12-13T10:07:18.871Z,2.10
2023-12-13T10:09:47.349Z,1.90
2023-12-13T10:12:17.297Z,2.10
2023-12-13T10:14:45.220Z,2.28
2023-12-13T10:17:19.774Z,2.13
2023-12-13T10:19:48.866Z,2.13
2023-12-13T10:22:20.234Z,2.13
2023-12-13T10:24:49.374Z,2.00
2023-12-13T10:27:17.500Z,2.28
2023-12-13T10:29:48.070Z,1.75
2023-12-13T10:32:16.042Z,2.00
2023-12-13T10:34:44.360Z,1.98
2023-12-13T10:37:13.829Z,1.92
2023-12-13T10:39:45.966Z,1.80
2023-12-13T10:42:18.413Z,1.98
2023-12-13T10:44:48.237Z,1.70
2023-12-13T10:47:17.151Z,2.00
2023-12-13T10:49:46.023Z,1.75
2023-12-13T10:52:13.973Z,1.90
2023-12-13T10:54:41.989Z,1.90
2023-12-13T10:57:10.273Z,1.70
2023-12-13T10:59:38.915Z,1.80
2023-12-13T11:02:07.213Z,1.80
2023-12-13T11:04:37.226Z,2.00
2023-12-13T11:07:10.058Z,1.98
2023-12-13T11:09:53.205Z,1.65
2023-12-13T11:12:21.776Z,1.80
2023-12-13T11:14:53.628Z,1.95
2023-12-13T11:17:23.742Z,1.42
2023-12-13T11:19:53.701Z,1.60
2023-12-13T11:22:25.477Z,1.80
2023-12-13T11:25:07.915Z,1.83
2023-12-13T11:27:36.277Z,1.60
2023-12-13T11:30:17.196Z,1.65
2023-12-13T11:32:47.265Z,1.70
2023-12-13T11:35:19.530Z,1.60
2023-12-13T11:37:52.488Z,2.08
2023-12-13T11:40:21.433Z,1.83
2023-12-13T11:42:51.634Z,1.60
2023-12-13T11:45:22.751Z,1.90
2023-12-13T11:47:51.917Z,1.80
2023-12-13T11:50:23.842Z,1.63
2023-12-13T11:52:52.052Z,1.52
2023-12-13T11:55:24.671Z,1.45
2023-12-13T11:57:55.099Z,1.90
2023-12-13T12:00:23.373Z,1.67
2023-12-13T12:02:55.589Z,1.38
2023-12-13T12:05:25.250Z,1.67
2023-12-13T12:08:00.964Z,1.73
2023-12-13T12:10:31.843Z,1.50
2023-12-13T12:13:03.954Z,1.73
2023-12-13T12:15:35.198Z,1.33
2023-12-13T12:18:04.363Z,1.60
2023-12-13T12:20:32.356Z,1.50
2023-12-13T12:23:02.941Z,1.50
2023-12-13T12:25:31.439Z,1.40
2023-12-13T12:27:59.534Z,1.50
2023-12-13T12:30:27.516Z,1.83
2023-12-13T12:32:55.532Z,1.80
2023-12-13T12:35:23.471Z,1.30
2023-12-13T12:37:52.007Z,1.60
2023-12-13T12:40:20.077Z,1.40
2023-12-13T12:42:48.029Z,1.75
2023-12-13T12:45:16.147Z,1.65
2023-12-13T12:47:44.072Z,1.40
2023-12-13T12:50:12.162Z,1.23
2023-12-13T12:52:40.276Z,1.50
2023-12-13T12:55:08.641Z,1.60
2023-12-13T12:57:36.917Z,1.40
2023-12-13T13:00:06.607Z,1.40
2023-12-13T13:02:34.609Z,1.20
2023-12-13T13:05:02.778Z,1.60
2023-12-13T13:07:30.901Z,1.63
2023-12-13T13:09:58.930Z,1.52
2023-12-13T13:12:26.837Z,1.45
2023-12-13T13:14:54.872Z,1.60
2023-12-13T13:17:23.144Z,1.70
2023-12-13T13:19:51.225Z,1.60
2023-12-13T13:22:22.557Z,1.35
2023-12-13T13:24:53.442Z,1.50
2023-12-13T13:27:25.772Z,1.70
2023-12-13T13:29:57.700Z,1.50
2023-12-13T13:32:25.874Z,1.73
2023-12-13T13:34:54.799Z,1.60
2023-12-13T13:37:22.798Z,1.55
2023-12-13T13:39:50.858Z,1.50
2023-12-13T13:42:18.891Z,1.25
2023-12-13T13:44:46.771Z,1.60
2023-12-13T13:47:14.822Z,1.50
2023-12-13T13:49:43.114Z,1.77
2023-12-13T13:52:11.301Z,1.58
2023-12-13T13:54:39.358Z,1.50
2023-12-13T13:57:08.256Z,1.48
2023-12-13T13:59:36.795Z,1.60
2023-12-13T14:02:04.924Z,1.33
2023-12-13T14:04:32.963Z,1.30
2023-12-13T14:07:00.855Z,1.60
2023-12-13T14:09:28.783Z,1.40
2023-12-13T14:11:58.753Z,1.63
2023-12-13T14:14:27.559Z,1.50
2023-12-13T14:16:55.650Z,1.35
2023-12-13T14:19:23.664Z,1.45
2023-12-13T14:21:51.737Z,1.55
2023-12-13T14:24:19.993Z,1.60
2023-12-13T14:26:48.974Z,1.20
2023-12-13T14:29:17.400Z,1.58
2023-12-13T14:31:45.658Z,1.95
2023-12-13T14:34:13.686Z,1.80
2023-12-13T14:36:41.986Z,1.65
2023-12-13T14:39:09.780Z,1.65
2023-12-13T14:41:37.625Z,1.55
2023-12-13T14:44:06.758Z,1.80
2023-12-13T14:46:34.686Z,1.60
2023-12-13T14:49:05.246Z,1.70
2023-12-13T14:51:34.256Z,1.23
2023-12-13T14:54:02.171Z,1.33
2023-12-13T14:56:32.597Z,1.60
2023-12-13T14:59:00.635Z,1.50
2023-12-13T15:01:29.118Z,1.40
2023-12-13T15:03:57.053Z,1.55
2023-12-13T15:06:25.075Z,1.80
2023-12-13T15:08:52.950Z,1.50
2023-12-13T15:11:20.737Z,1.70
2023-12-13T15:13:49.976Z,1.35
2023-12-13T15:16:18.204Z,1.42
2023-12-13T15:18:47.643Z,1.70
2023-12-13T15:21:15.536Z,1.70
2023-12-13T15:23:43.577Z,1.50
2023-12-13T15:26:11.484Z,1.42
2023-12-13T15:28:39.619Z,1.40
2023-12-13T15:31:08.618Z,1.30
2023-12-13T15:33:36.956Z,1.55
2023-12-13T15:36:05.274Z,1.50
2023-12-13T15:38:33.877Z,1.30
2023-12-13T15:41:01.941Z,1.50
2023-12-13T15:43:29.889Z,1.38
2023-12-13T15:45:59.532Z,1.40
2023-12-13T15:48:27.931Z,1.42
2023-12-13T15:50:55.799Z,1.40
2023-12-13T15:53:23.623Z,1.25
2023-12-13T15:55:52.582Z,1.30
2023-12-13T15:58:21.107Z,1.40
2023-12-13T16:00:49.502Z,1.40
2023-12-13T16:03:17.700Z,1.42
2023-12-13T16:05:45.794Z,1.33
2023-12-13T16:08:14.336Z,1.20
2023-12-13T16:10:45.659Z,1.65
2023-12-13T16:13:14.243Z,1.37
2023-12-13T16:15:42.328Z,1.40
2023-12-13T16:18:10.253Z,1.45
2023-12-13T16:20:38.169Z,1.48
2023-12-13T16:23:06.364Z,1.45
2023-12-13T16:25:34.540Z,1.45
2023-12-13T16:28:03.963Z,1.27
2023-12-13T16:30:32.902Z,1.48
2023-12-13T16:33:00.730Z,1.30
2023-12-13T16:35:28.547Z,1.35
2023-12-13T16:37:56.391Z,1.40
2023-12-13T16:40:24.435Z,1.52
2023-12-13T16:42:52.903Z,1.65
2023-12-13T16:45:20.784Z,1.50
2023-12-13T16:47:48.922Z,1.77
2023-12-13T16:50:16.992Z,1.77
2023-12-13T16:52:45.041Z,1.50
2023-12-13T16:55:12.995Z,1.30
2023-12-13T16:57:40.859Z,1.50
2023-12-13T17:00:09.264Z,1.60
2023-12-13T17:02:43.866Z,1.40
2023-12-13T17:05:15.997Z,1.63
2023-12-13T17:07:46.013Z,1.33
2023-12-13T17:10:15.175Z,1.50
2023-12-13T17:12:43.240Z,1.55
2023-12-13T17:15:12.542Z,1.38
2023-12-13T17:17:40.427Z,1.50
2023-12-13T17:20:09.129Z,1.50
2023-12-13T17:22:37.451Z,1.48
2023-12-13T17:25:07.874Z,1.90
2023-12-13T17:27:36.144Z,1.70
2023-12-13T17:30:04.877Z,1.70
2023-12-13T17:32:33.631Z,1.63
2023-12-13T17:35:01.926Z,1.40
2023-12-13T17:37:29.910Z,1.73
2023-12-13T17:39:58.016Z,1.60
2023-12-13T17:42:29.783Z,1.77
2023-12-13T17:44:58.165Z,1.60
2023-12-13T17:47:26.310Z,1.67
2023-12-13T17:49:55.673Z,1.50
2023-12-13T17:52:23.990Z,1.30
2023-12-13T17:54:52.084Z,1.65
2023-12-13T17:57:20.101Z,1.50
2023-12-13T17:59:50.989Z,1.42
2023-12-13T18:02:20.378Z,1.50
2023-12-13T18:04:49.503Z,1.48
2023-12-13T18:07:17.509Z,1.77
2023-12-13T18:09:48.206Z,1.60
2023-12-13T18:12:16.181Z,1.55
2023-12-13T18:14:44.748Z,1.52
2023-12-13T18:17:13.722Z,1.17
2023-12-13T18:19:41.710Z,1.33
2023-12-13T18:22:15.004Z,1.67
2023-12-13T18:24:44.207Z,1.40
2023-12-13T18:27:12.312Z,1.40
2023-12-13T18:29:40.256Z,1.70
2023-12-13T18:32:09.537Z,1.30
2023-12-13T18:34:38.417Z,1.38
2023-12-13T18:37:07.827Z,1.50
2023-12-13T18:39:35.910Z,1.20
